createdAt,value
2023-05-05T00:00:15.724Z,9.73
2023-05-05T00:02:42.521Z,9.73
2023-05-05T00:05:09.426Z,9.70
2023-05-05T00:07:36.017Z,9.56
2023-05-05T00:10:02.705Z,9.54
2023-05-05T00:12:29.216Z,9.49
2023-05-05T00:14:56.129Z,9.37
2023-05-05T00:17:23.017Z,9.34
2023-05-05T00:19:49.510Z,9.20
2023-05-05T00:22:15.970Z,9.15
2023-05-05T00:24:42.402Z,9.06
2023-05-05T00:27:08.832Z,9.04
2023-05-05T00:29:35.233Z,9.02
2023-05-05T00:32:02.996Z,8.99
2023-05-05T00:34:29.492Z,8.98
2023-05-05T00:36:56.273Z,8.98
2023-05-05T00:39:22.695Z,8.97
2023-05-05T00:41:49.109Z,8.97
2023-05-05T00:44:15.730Z,8.95
2023-05-05T00:46:43.161Z,9.00
2023-05-05T00:49:10.119Z,9.10
2023-05-05T00:51:36.576Z,9.06
2023-05-05T00:54:03.040Z,9.01
2023-05-05T00:56:29.728Z,9.01
2023-05-05T00:58:56.353Z,9.01
2023-05-05T01:01:23.098Z,8.97
2023-05-05T01:03:49.742Z,8.95
2023-05-05T01:06:40.886Z,8.95
2023-05-05T01:09:27.024Z,8.89
2023-05-05T01:12:25.911Z,8.98
2023-05-05T01:15:22.529Z,8.98
2023-05-05T01:18:07.371Z,9.02
2023-05-05T01:20:53.212Z,8.93
2023-05-05T01:23:49.709Z,8.94
2023-05-05T01:26:51.326Z,9.01
2023-05-05T01:29:55.535Z,8.97
2023-05-05T01:32:27.364Z,8.85
2023-05-05T01:34:57.266Z,8.80
2023-05-05T01:37:28.032Z,8.76
2023-05-05T01:39:59.281Z,8.75
2023-05-05T01:42:27.279Z,8.71
2023-05-05T01:44:54.552Z,8.68
2023-05-05T01:47:23.062Z,8.66
2023-05-05T01:49:50.810Z,8.70
2023-05-05T01:52:20.496Z,8.65
2023-05-05T01:54:48.688Z,8.62
2023-05-05T01:57:15.823Z,8.63
2023-05-05T01:59:42.505Z,8.57
2023-05-05T02:02:11.226Z,8.58
2023-05-05T02:04:42.153Z,8.62
2023-05-05T02:07:10.689Z,8.68
2023-05-05T02:09:38.579Z,8.71
2023-05-05T02:12:06.625Z,8.67
2023-05-05T02:14:34.234Z,8.70
2023-05-05T02:17:01.892Z,8.74
2023-05-05T02:19:38.947Z,8.74
2023-05-05T02:22:05.876Z,8.75
2023-05-05T02:24:34.402Z,8.68
2023-05-05T02:27:03.550Z,8.64
2023-05-05T02:29:37.040Z,8.63
2023-05-05T02:32:14.243Z,8.67
2023-05-05T02:34:42.753Z,8.61
2023-05-05T02:37:12.512Z,8.61
2023-05-05T02:39:45.111Z,8.64
2023-05-05T02:42:19.672Z,8.65
2023-05-05T02:44:47.548Z,8.69
2023-05-05T02:47:14.008Z,8.71
2023-05-05T02:49:40.672Z,8.70
2023-05-05T02:52:07.200Z,8.69
2023-05-05T02:54:41.452Z,8.66
2023-05-05T02:57:10.761Z,8.68
2023-05-05T03:00:05.698Z,8.58
2023-05-05T03:02:46.791Z,8.67
2023-05-05T03:05:19.583Z,8.62
2023-05-05T03:08:00.420Z,8.63
2023-05-05T03:10:31.001Z,8.60
2023-05-05T03:13:03.030Z,8.65
2023-05-05T03:15:32.552Z,8.72
2023-05-05T03:18:00.352Z,8.68
2023-05-05T03:20:27.488Z,8.66
2023-05-05T03:22:54.826Z,8.69
2023-05-05T03:25:21.397Z,8.67
2023-05-05T03:27:47.813Z,8.67
2023-05-05T03:30:14.671Z,8.71
2023-05-05T03:32:41.113Z,8.72
2023-05-05T03:35:07.864Z,8.77
2023-05-05T03:37:35.351Z,8.77
2023-05-05T03:40:03.221Z,8.74
2023-05-05T03:42:29.652Z,8.71
2023-05-05T03:44:57.133Z,8.66
2023-05-05T03:47:24.633Z,8.54
2023-05-05T03:49:51.153Z,8.49
2023-05-05T03:52:17.606Z,8.40
2023-05-05T03:54:46.017Z,8.40
2023-05-05T03:57:12.505Z,8.34
2023-05-05T03:59:38.880Z,8.29
2023-05-05T04:02:05.294Z,8.32
2023-05-05T04:04:31.723Z,8.40
2023-05-05T04:06:58.163Z,8.37
2023-05-05T04:09:24.580Z,8.36
2023-05-05T04:11:51.098Z,8.35
2023-05-05T04:14:20.714Z,8.34
2023-05-05T04:16:47.111Z,8.44
2023-05-05T04:19:13.787Z,8.63
2023-05-05T04:21:40.274Z,8.77
2023-05-05T04:24:06.801Z,8.89
2023-05-05T04:26:33.221Z,9.03
2023-05-05T04:28:59.608Z,9.28
2023-05-05T04:31:26.105Z,9.83
2023-05-05T04:33:52.590Z,10.45
2023-05-05T04:36:19.222Z,11.17
2023-05-05T04:38:45.865Z,11.86
2023-05-05T04:41:12.377Z,12.21
2023-05-05T04:43:38.932Z,12.81
2023-05-05T04:46:05.453Z,13.48
2023-05-05T04:48:31.924Z,13.94
2023-05-05T04:50:58.355Z,14.11
2023-05-05T04:53:24.994Z,14.65
2023-05-05T04:55:51.459Z,14.41
2023-05-05T04:58:17.905Z,14.32
2023-05-05T05:00:44.337Z,14.23
2023-05-05T05:03:10.911Z,13.93
2023-05-05T05:05:37.440Z,14.12
2023-05-05T05:08:04.068Z,13.91
2023-05-05T05:10:30.570Z,13.87
2023-05-05T05:12:57.033Z,14.32
2023-05-05T05:15:23.579Z,14.92
2023-05-05T05:17:50.019Z,15.23
2023-05-05T05:20:16.506Z,15.12
2023-05-05T05:22:42.981Z,15.11
2023-05-05T05:25:09.539Z,14.98
2023-05-05T05:27:36.034Z,15.06
2023-05-05T05:30:03.166Z,15.21
2023-05-05T05:32:29.790Z,14.74
2023-05-05T05:34:56.222Z,14.72
2023-05-05T05:37:22.620Z,14.41
2023-05-05T05:39:52.323Z,14.58
2023-05-05T05:42:18.904Z,14.58
2023-05-05T05:44:45.336Z,15.23
2023-05-05T05:47:11.748Z,15.49
2023-05-05T05:49:38.939Z,16.38
2023-05-05T05:52:05.922Z,17.27
2023-05-05T05:54:34.411Z,18.05
2023-05-05T05:57:01.300Z,18.86
2023-05-05T05:59:28.074Z,19.11
2023-05-05T06:01:55.454Z,20.19
2023-05-05T06:04:22.125Z,20.19
2023-05-05T06:06:48.640Z,20.66
2023-05-05T06:09:15.210Z,20.23
2023-05-05T06:11:41.644Z,20.80
2023-05-05T06:14:08.064Z,21.43
2023-05-05T06:16:34.550Z,21.56
2023-05-05T06:19:00.985Z,21.10
2023-05-05T06:21:27.671Z,20.66
2023-05-05T06:23:54.118Z,20.16
2023-05-05T06:26:21.538Z,20.19
2023-05-05T06:28:47.955Z,20.29
2023-05-05T06:31:14.463Z,20.00
2023-05-05T06:33:40.993Z,20.13
2023-05-05T06:36:07.761Z,20.42
2023-05-05T06:38:34.272Z,20.55
2023-05-05T06:41:00.763Z,20.42
2023-05-05T06:43:28.669Z,20.34
2023-05-05T06:45:55.096Z,20.54
2023-05-05T06:48:22.097Z,20.12
2023-05-05T06:50:48.733Z,20.45
2023-05-05T06:53:15.202Z,21.18
2023-05-05T06:55:46.004Z,21.95
2023-05-05T06:58:13.086Z,21.76
2023-05-05T07:00:40.914Z,21.88
2023-05-05T07:03:07.745Z,21.64
2023-05-05T07:05:34.274Z,21.59
2023-05-05T07:08:00.965Z,21.09
2023-05-05T07:10:28.057Z,21.22
2023-05-05T07:12:55.286Z,20.97
2023-05-05T07:15:28.769Z,21.60
2023-05-05T07:17:56.529Z,21.59
2023-05-05T07:20:23.293Z,21.71
2023-05-05T07:22:49.817Z,22.53
2023-05-05T07:25:16.536Z,22.54
2023-05-05T07:27:43.172Z,22.88
2023-05-05T07:30:14.000Z,22.13
2023-05-05T07:32:42.026Z,22.18
2023-05-05T07:35:09.019Z,22.76
2023-05-05T07:37:35.947Z,22.54
2023-05-05T07:40:02.352Z,22.99
2023-05-05T07:42:28.830Z,23.34
2023-05-05T07:44:55.261Z,23.10
2023-05-05T07:47:21.767Z,22.80
2023-05-05T07:49:48.275Z,22.65
2023-05-05T07:52:14.740Z,23.37
2023-05-05T07:54:42.330Z,23.34
2023-05-05T07:57:08.701Z,23.29
2023-05-05T07:59:35.181Z,23.67
2023-05-05T08:02:01.598Z,23.38
2023-05-05T08:04:28.110Z,23.61
2023-05-05T08:06:54.575Z,23.26
2023-05-05T08:09:21.076Z,22.91
2023-05-05T08:11:47.606Z,23.41
2023-05-05T08:14:15.096Z,23.70
2023-05-05T08:16:41.523Z,23.82
2023-05-05T08:19:21.179Z,24.02
2023-05-05T08:21:51.664Z,24.50
2023-05-05T08:24:18.167Z,24.09
2023-05-05T08:26:44.628Z,24.23
2023-05-05T08:29:11.116Z,23.94
2023-05-05T08:31:37.613Z,24.33
2023-05-05T08:34:06.939Z,24.60
2023-05-05T08:36:33.509Z,24.85
2023-05-05T08:39:00.327Z,24.71
2023-05-05T08:41:28.026Z,24.48
2023-05-05T08:43:54.764Z,24.60
2023-05-05T08:46:22.396Z,24.73
2023-05-05T08:48:49.508Z,24.23
2023-05-05T08:51:19.965Z,24.51
2023-05-05T08:54:01.946Z,24.58
2023-05-05T08:56:34.125Z,24.49
2023-05-05T08:59:02.327Z,24.42
2023-05-05T09:01:30.029Z,24.14
2023-05-05T09:03:58.618Z,24.13
2023-05-05T09:06:27.348Z,24.08
2023-05-05T09:08:54.026Z,24.12
2023-05-05T09:11:21.538Z,23.90
2023-05-05T09:13:51.372Z,23.55
2023-05-05T09:16:17.850Z,23.61
2023-05-05T09:18:45.565Z,23.06
2023-05-05T09:21:23.691Z,23.39
2023-05-05T09:24:09.122Z,23.12
2023-05-05T09:26:38.559Z,23.30
2023-05-05T09:29:05.729Z,23.42
2023-05-05T09:31:33.627Z,23.39
2023-05-05T09:34:01.337Z,23.41
2023-05-05T09:36:48.132Z,23.49
2023-05-05T09:39:19.706Z,23.51
2023-05-05T09:41:46.951Z,23.68
2023-05-05T09:44:17.357Z,23.23
2023-05-05T09:46:52.076Z,22.85
2023-05-05T09:49:25.170Z,22.91
2023-05-05T09:51:52.891Z,23.11
2023-05-05T09:54:27.664Z,23.21
2023-05-05T09:56:57.519Z,23.11
2023-05-05T09:59:24.476Z,22.91
2023-05-05T10:01:51.937Z,23.19
2023-05-05T10:04:31.074Z,23.38
2023-05-05T10:06:58.679Z,23.21
2023-05-05T10:09:26.141Z,23.28
2023-05-05T10:11:53.196Z,23.28
2023-05-05T10:14:20.381Z,23.38
2023-05-05T10:16:51.628Z,23.51
2023-05-05T10:19:21.900Z,23.49
2023-05-05T10:21:53.374Z,23.72
2023-05-05T10:24:29.368Z,23.61
2023-05-05T10:26:58.195Z,23.67
2023-05-05T10:29:37.105Z,23.70
2023-05-05T10:32:40.700Z,23.58
2023-05-05T10:35:04.102Z,23.55
2023-05-05T10:37:30.979Z,23.93
2023-05-05T10:39:58.611Z,23.98
2023-05-05T10:42:25.112Z,24.18
2023-05-05T10:44:51.660Z,24.27
2023-05-05T10:47:20.097Z,24.03
2023-05-05T10:50:01.723Z,24.16
2023-05-05T10:52:47.139Z,24.27
2023-05-05T10:55:22.402Z,24.52
2023-05-05T10:57:53.343Z,24.57
2023-05-05T11:00:38.190Z,24.30
2023-05-05T11:03:18.036Z,24.17
2023-05-05T11:06:09.325Z,24.40
2023-05-05T11:08:40.286Z,24.35
2023-05-05T11:11:07.612Z,24.61
2023-05-05T11:13:34.132Z,24.73
2023-05-05T11:16:02.158Z,24.74
2023-05-05T11:18:38.625Z,24.87
2023-05-05T11:21:16.666Z,24.95
2023-05-05T11:23:51.710Z,24.91
2023-05-05T11:26:39.174Z,24.93
2023-05-05T11:29:06.370Z,25.04
2023-05-05T11:31:32.972Z,24.96
2023-05-05T11:34:28.430Z,24.84
2023-05-05T11:37:07.664Z,24.94
2023-05-05T11:40:26.694Z,25.11
2023-05-05T11:43:05.453Z,25.14
2023-05-05T11:45:32.169Z,25.29
2023-05-05T11:48:24.085Z,25.38
2023-05-05T11:50:50.630Z,25.47
2023-05-05T11:53:19.169Z,25.40
2023-05-05T11:55:45.594Z,25.33
2023-05-05T11:58:21.562Z,25.28
2023-05-05T12:01:04.320Z,25.20
2023-05-05T12:03:35.560Z,24.97
2023-05-05T12:06:03.468Z,24.84
2023-05-05T12:08:35.727Z,24.87
2023-05-05T12:11:03.888Z,24.93
2023-05-05T12:13:30.423Z,24.81
2023-05-05T12:15:56.866Z,24.82
2023-05-05T12:18:23.470Z,24.74
2023-05-05T12:20:50.027Z,24.73
2023-05-05T12:23:46.857Z,24.52
2023-05-05T12:26:31.972Z,24.32
2023-05-05T12:29:00.364Z,24.18
2023-05-05T12:31:36.770Z,23.99
2023-05-05T12:34:04.367Z,23.94
2023-05-05T12:36:31.159Z,23.90
2023-05-05T12:38:58.187Z,24.02
2023-05-05T12:41:24.624Z,23.84
2023-05-05T12:43:59.220Z,23.73
2023-05-05T12:46:44.277Z,23.66
2023-05-05T12:49:10.869Z,23.35
2023-05-05T12:51:38.929Z,23.33
2023-05-05T12:54:07.854Z,23.37
2023-05-05T12:56:40.659Z,23.30
2023-05-05T12:59:22.393Z,23.28
2023-05-05T13:01:52.763Z,23.09
2023-05-05T13:04:20.967Z,22.96
2023-05-05T13:06:49.149Z,22.93
2023-05-05T13:09:26.479Z,22.82
2023-05-05T13:11:54.646Z,22.77
2023-05-05T13:14:21.389Z,22.71
2023-05-05T13:16:47.874Z,22.69
2023-05-05T13:19:14.913Z,22.71
2023-05-05T13:21:41.777Z,22.85
2023-05-05T13:24:23.545Z,22.79
2023-05-05T13:26:55.757Z,22.82
2023-05-05T13:29:23.322Z,22.94
2023-05-05T13:31:51.731Z,22.97
2023-05-05T13:34:20.475Z,22.91
2023-05-05T13:36:47.014Z,23.13
2023-05-05T13:39:13.508Z,23.19
2023-05-05T13:41:40.061Z,23.36
2023-05-05T13:44:06.592Z,23.43
2023-05-05T13:46:33.030Z,23.26
2023-05-05T13:48:59.552Z,23.04
2023-05-05T13:51:26.030Z,22.91
2023-05-05T13:53:52.691Z,22.77
2023-05-05T13:56:19.409Z,22.67
2023-05-05T13:58:46.361Z,22.47
2023-05-05T14:01:12.821Z,22.39
2023-05-05T14:03:39.708Z,22.23
2023-05-05T14:06:07.475Z,22.16
2023-05-05T14:08:34.094Z,22.11
2023-05-05T14:11:00.524Z,22.06
2023-05-05T14:13:26.976Z,22.04
2023-05-05T14:15:53.837Z,22.06
2023-05-05T14:18:20.758Z,22.13
2023-05-05T14:20:50.459Z,21.97
2023-05-05T14:23:16.864Z,21.96
2023-05-05T14:25:43.342Z,21.86
2023-05-05T14:28:09.745Z,21.77
2023-05-05T14:30:36.181Z,21.88
2023-05-05T14:33:02.675Z,21.92
2023-05-05T14:35:30.023Z,21.91
2023-05-05T14:37:56.495Z,21.90
2023-05-05T14:40:23.040Z,21.92
2023-05-05T14:42:50.796Z,21.81
2023-05-05T14:45:17.308Z,21.80
2023-05-05T14:47:43.784Z,21.74
2023-05-05T14:50:10.857Z,21.70
2023-05-05T14:52:39.241Z,21.73
2023-05-05T14:55:07.387Z,21.50
2023-05-05T14:57:34.433Z,21.35
2023-05-05T15:00:00.896Z,21.31
2023-05-05T15:02:27.495Z,21.28
2023-05-05T15:04:53.945Z,21.23
2023-05-05T15:07:22.034Z,21.19
2023-05-05T15:09:48.468Z,21.17
2023-05-05T15:12:14.971Z,21.20
2023-05-05T15:14:41.686Z,21.27
2023-05-05T15:17:08.136Z,21.37
2023-05-05T15:19:43.004Z,21.49
2023-05-05T15:22:09.493Z,21.61
2023-05-05T15:24:36.029Z,21.75
2023-05-05T15:27:02.864Z,21.82
2023-05-05T15:29:29.309Z,21.86
2023-05-05T15:32:01.866Z,21.85
2023-05-05T15:34:28.332Z,21.89
2023-05-05T15:36:55.335Z,21.88
2023-05-05T15:39:21.722Z,21.93
2023-05-05T15:41:48.250Z,21.82
2023-05-05T15:44:14.645Z,21.73
2023-05-05T15:46:41.202Z,21.73
2023-05-05T15:49:07.683Z,21.62
2023-05-05T15:51:37.287Z,21.49
2023-05-05T15:54:03.855Z,21.37
2023-05-05T15:56:30.338Z,21.32
2023-05-05T15:58:59.664Z,21.35
2023-05-05T16:01:26.080Z,21.18
2023-05-05T16:03:52.507Z,21.04
2023-05-05T16:06:18.937Z,21.07
2023-05-05T16:08:47.651Z,21.20
2023-05-05T16:11:14.094Z,20.90
2023-05-05T16:13:40.548Z,21.04
2023-05-05T16:16:07.045Z,21.01
2023-05-05T16:18:33.712Z,20.76
2023-05-05T16:21:00.148Z,20.65
2023-05-05T16:23:26.575Z,20.46
2023-05-05T16:25:53.017Z,20.32
2023-05-05T16:28:19.450Z,20.48
2023-05-05T16:30:45.905Z,20.36
2023-05-05T16:33:12.309Z,20.31
2023-05-05T16:35:38.718Z,20.23
2023-05-05T16:38:05.151Z,20.15
2023-05-05T16:40:31.582Z,20.14
2023-05-05T16:42:58.006Z,20.20
2023-05-05T16:45:24.718Z,20.08
2023-05-05T16:47:51.236Z,20.02
2023-05-05T16:50:17.848Z,19.91
2023-05-05T16:52:44.254Z,19.94
2023-05-05T16:55:10.945Z,19.85
2023-05-05T16:57:37.837Z,19.84
2023-05-05T17:00:05.880Z,19.74
2023-05-05T17:02:32.451Z,19.48
2023-05-05T17:04:58.975Z,19.39
2023-05-05T17:07:25.442Z,19.20
2023-05-05T17:09:51.917Z,19.09
2023-05-05T17:12:18.371Z,19.10
2023-05-05T17:14:47.966Z,19.00
2023-05-05T17:17:14.456Z,19.03
2023-05-05T17:19:42.577Z,18.87
2023-05-05T17:22:09.040Z,18.61
2023-05-05T17:24:35.605Z,18.62
2023-05-05T17:27:02.051Z,18.52
2023-05-05T17:29:28.502Z,18.50
2023-05-05T17:31:55.050Z,18.59
2023-05-05T17:34:21.924Z,18.50
2023-05-05T17:36:48.376Z,18.41
2023-05-05T17:39:14.818Z,18.43
2023-05-05T17:41:42.370Z,18.34
2023-05-05T17:44:08.864Z,18.23
2023-05-05T17:46:36.139Z,18.25
2023-05-05T17:49:02.840Z,18.17
2023-05-05T17:51:29.344Z,18.12
2023-05-05T17:53:56.128Z,18.12
2023-05-05T17:56:22.858Z,18.03
2023-05-05T17:58:55.158Z,18.04
2023-05-05T18:01:26.566Z,17.99
2023-05-05T18:03:53.145Z,18.02
2023-05-05T18:06:19.636Z,17.98
2023-05-05T18:08:46.584Z,17.96
2023-05-05T18:11:13.091Z,17.95
2023-05-05T18:13:42.578Z,17.90
2023-05-05T18:16:09.161Z,17.85
2023-05-05T18:18:36.201Z,17.83
2023-05-05T18:21:02.765Z,17.76
2023-05-05T18:23:29.301Z,17.72
2023-05-05T18:26:32.845Z,17.69
2023-05-05T18:28:59.435Z,17.69
2023-05-05T18:31:26.598Z,17.70
2023-05-05T18:33:53.633Z,17.71
2023-05-05T18:36:20.076Z,17.69
2023-05-05T18:38:46.664Z,17.67
2023-05-05T18:41:13.185Z,17.65
2023-05-05T18:43:39.631Z,17.70
2023-05-05T18:46:06.273Z,17.64
2023-05-05T18:48:40.259Z,17.49
2023-05-05T18:51:07.522Z,17.34
2023-05-05T18:53:36.987Z,17.25
2023-05-05T18:56:03.477Z,17.18
2023-05-05T18:58:30.561Z,17.13
2023-05-05T19:00:57.521Z,17.05
2023-05-05T19:03:23.969Z,16.99
2023-05-05T19:05:50.387Z,16.98
2023-05-05T19:08:58.570Z,16.99
2023-05-05T19:11:43.563Z,16.88
2023-05-05T19:14:10.019Z,16.85
2023-05-05T19:16:36.511Z,16.89
2023-05-05T19:19:03.149Z,16.87
2023-05-05T19:21:29.674Z,16.74
2023-05-05T19:24:20.966Z,16.72
2023-05-05T19:26:50.540Z,16.71
2023-05-05T19:29:17.178Z,16.84
2023-05-05T19:31:43.632Z,16.85
2023-05-05T19:34:10.209Z,16.81
2023-05-05T19:36:36.745Z,16.74
2023-05-05T19:39:04.533Z,16.84
2023-05-05T19:41:31.503Z,16.83
2023-05-05T19:44:29.180Z,16.60
2023-05-05T19:46:55.596Z,16.29
2023-05-05T19:49:22.105Z,16.10
2023-05-05T19:51:49.838Z,15.97
2023-05-05T19:54:16.555Z,15.81
2023-05-05T19:56:43.027Z,15.58
2023-05-05T19:59:09.561Z,15.39
2023-05-05T20:01:36.175Z,15.29
2023-05-05T20:04:03.739Z,15.18
2023-05-05T20:06:30.606Z,15.14
2023-05-05T20:08:57.124Z,15.09
2023-05-05T20:11:25.097Z,15.00
2023-05-05T20:13:51.792Z,14.92
2023-05-05T20:16:18.594Z,14.90
2023-05-05T20:18:45.301Z,14.84
2023-05-05T20:21:11.966Z,14.83
2023-05-05T20:23:38.584Z,14.68
2023-05-05T20:26:06.382Z,14.75
2023-05-05T20:28:33.061Z,14.68
2023-05-05T20:31:00.839Z,14.67
2023-05-05T20:41:44.538Z,14.60
2023-05-05T20:44:11.397Z,14.54
2023-05-05T20:49:27.332Z,14.48
2023-05-05T20:55:17.793Z,14.41
2023-05-05T20:57:59.038Z,14.31
2023-05-05T21:00:38.577Z,14.33
2023-05-05T21:03:09.323Z,14.32
2023-05-05T21:05:53.514Z,14.32
2023-05-05T21:08:27.291Z,14.34
2023-05-05T21:11:00.095Z,14.33
2023-05-05T21:13:27.299Z,14.30
2023-05-05T21:15:55.211Z,14.32
2023-05-05T21:18:22.320Z,14.35
2023-05-05T21:20:49.634Z,14.32
2023-05-05T21:23:20.214Z,14.28
2023-05-05T21:25:47.455Z,14.29
2023-05-05T21:28:14.011Z,14.22
2023-05-05T21:30:40.617Z,14.24
2023-05-05T21:33:07.270Z,14.21
2023-05-05T21:35:33.833Z,14.20
2023-05-05T21:38:01.083Z,14.17
2023-05-05T21:40:28.240Z,14.20
2023-05-05T21:42:58.137Z,14.18
2023-05-05T21:45:27.773Z,14.20
2023-05-05T21:47:55.926Z,14.17
2023-05-05T21:50:22.531Z,14.18
2023-05-05T21:52:49.257Z,14.12
2023-05-05T21:55:16.328Z,14.11
2023-05-05T21:57:43.206Z,14.10
2023-05-05T22:00:10.705Z,14.08
2023-05-05T22:02:37.528Z,14.09
2023-05-05T22:05:04.484Z,13.97
2023-05-05T22:07:32.855Z,13.96
2023-05-05T22:09:59.734Z,13.93
2023-05-05T22:12:26.342Z,13.94
2023-05-05T22:14:53.149Z,13.89
2023-05-05T22:17:20.004Z,13.87
2023-05-05T22:19:46.882Z,13.78
2023-05-05T22:22:13.689Z,13.80
2023-05-05T22:24:40.843Z,13.81
2023-05-05T22:27:08.233Z,13.80
2023-05-05T22:29:34.919Z,13.77
2023-05-05T22:32:01.683Z,13.74
2023-05-05T22:34:28.606Z,13.75
2023-05-05T22:36:55.637Z,13.73
2023-05-05T22:39:22.779Z,13.69
2023-05-05T22:41:49.698Z,13.72
2023-05-05T22:44:20.544Z,13.66
2023-05-05T22:46:52.528Z,13.64
2023-05-05T22:49:22.726Z,13.63
2023-05-05T22:52:01.015Z,13.63
2023-05-05T22:54:27.519Z,13.64
2023-05-05T22:56:54.137Z,13.64
2023-05-05T22:59:20.698Z,13.64
2023-05-05T23:01:53.068Z,13.65
2023-05-05T23:04:19.597Z,13.70
2023-05-05T23:06:52.383Z,13.72
2023-05-05T23:09:28.374Z,13.62
2023-05-05T23:12:05.357Z,13.60
2023-05-05T23:14:34.157Z,13.56
2023-05-05T23:17:05.063Z,13.59
2023-05-05T23:19:37.630Z,13.57
2023-05-05T23:22:09.344Z,13.51
2023-05-05T23:24:49.301Z,13.52
2023-05-05T23:27:30.430Z,13.54
2023-05-05T23:30:01.075Z,13.50
2023-05-05T23:32:31.751Z,13.50
2023-05-05T23:35:04.969Z,13.51
2023-05-05T23:37:40.525Z,13.48
2023-05-05T23:40:10.574Z,13.49
2023-05-05T23:42:37.633Z,13.47
2023-05-05T23:45:05.479Z,13.50
2023-05-05T23:47:32.589Z,13.50
2023-05-05T23:50:00.598Z,13.45
2023-05-05T23:52:28.320Z,13.43
2023-05-05T23:54:55.572Z,13.42
2023-05-05T23:57:22.228Z,13.45
